createdAt,value
2019-02-23T00:00:13.211Z,1.00
2019-02-23T00:02:40.316Z,1.00
2019-02-23T00:05:05.748Z,1.00
2019-02-23T00:07:32.404Z,1.00
2019-02-23T00:09:58.151Z,1.00
2019-02-23T00:14:49.147Z,1.00
2019-02-23T00:17:14.356Z,1.00
2019-02-23T00:19:39.557Z,1.00
2019-02-23T00:22:05.936Z,99.90
2019-02-23T00:24:31.472Z,1.00
2019-02-23T00:26:56.761Z,1.00
2019-02-23T00:31:47.914Z,1.00
2019-02-23T00:34:13.262Z,1.00
2019-02-23T00:36:38.537Z,1.00
2019-02-23T00:39:04.335Z,99.90
2019-02-23T00:41:31.585Z,99.90
2019-02-23T00:43:56.785Z,1.00
2019-02-23T00:46:22.252Z,1.00
2019-02-23T00:48:47.518Z,99.90
2019-02-23T00:51:12.773Z,3.90
2019-02-23T00:53:38.005Z,1.00
2019-02-23T00:56:03.573Z,75.40
2019-02-23T00:58:28.797Z,58.50
2019-02-23T01:00:54.146Z,99.90
2019-02-23T01:03:19.409Z,99.90
2019-02-23T01:05:44.630Z,99.90
2019-02-23T01:08:09.812Z,97.10
2019-02-23T01:10:34.999Z,99.90
2019-02-23T01:13:00.239Z,99.90
2019-02-23T01:20:17.957Z,99.90
2019-02-23T01:22:43.128Z,99.90
2019-02-23T01:25:08.480Z,99.90
2019-02-23T01:27:34.003Z,1.00
2019-02-23T01:29:59.241Z,1.00
2019-02-23T01:32:24.683Z,1.00
2019-02-23T01:34:49.996Z,1.00
2019-02-23T01:37:15.606Z,1.00
2019-02-23T01:39:40.947Z,30.80
2019-02-23T01:42:06.374Z,31.10
2019-02-23T01:44:31.692Z,34.40
2019-02-23T01:46:56.933Z,99.90
2019-02-23T01:49:22.127Z,99.20
2019-02-23T01:51:47.591Z,99.90
2019-02-23T01:54:12.870Z,99.90
2019-02-23T01:56:38.038Z,99.90
2019-02-23T01:59:03.518Z,99.90
2019-02-23T02:01:28.679Z,1.00
2019-02-23T02:03:54.060Z,99.90
2019-02-23T02:06:19.332Z,1.00
2019-02-23T02:08:44.626Z,1.00
2019-02-23T02:11:10.069Z,1.00
2019-02-23T02:13:35.708Z,1.00
2019-02-23T02:16:00.886Z,1.00
2019-02-23T02:18:26.051Z,1.00
2019-02-23T02:20:51.215Z,1.00
2019-02-23T02:23:16.426Z,1.00
2019-02-23T02:25:41.588Z,41.80
2019-02-23T02:28:06.739Z,1.00
2019-02-23T02:30:31.939Z,99.90
2019-02-23T02:32:57.146Z,99.90
2019-02-23T02:35:22.335Z,99.90
2019-02-23T02:37:47.476Z,99.90
2019-02-23T02:40:12.642Z,1.00
2019-02-23T02:42:37.801Z,99.90
2019-02-23T02:45:06.180Z,99.90
2019-02-23T02:47:31.377Z,99.90
2019-02-23T02:49:56.521Z,1.00
2019-02-23T02:52:21.696Z,1.00
2019-02-23T02:54:46.900Z,1.00
2019-02-23T02:57:12.091Z,99.90
2019-02-23T02:59:37.247Z,1.00
2019-02-23T03:02:02.731Z,1.00
2019-02-23T03:04:28.079Z,99.90
2019-02-23T03:06:53.250Z,1.00
2019-02-23T03:09:18.423Z,99.90
2019-02-23T03:11:43.603Z,1.00
2019-02-23T03:14:08.803Z,30.40
2019-02-23T03:16:33.983Z,99.90
2019-02-23T03:18:59.166Z,99.90
2019-02-23T03:21:24.443Z,99.90
2019-02-23T03:23:49.606Z,1.00
2019-02-23T03:26:14.860Z,1.00
2019-02-23T03:28:40.280Z,1.00
2019-02-23T03:31:05.446Z,1.00
2019-02-23T03:33:30.648Z,99.90
2019-02-23T03:35:55.867Z,1.00
2019-02-23T03:38:21.014Z,99.90
2019-02-23T03:40:46.213Z,99.90
2019-02-23T03:43:11.589Z,99.90
2019-02-23T03:45:36.846Z,99.90
2019-02-23T03:48:02.153Z,99.90
2019-02-23T03:50:27.338Z,1.00
2019-02-23T03:52:52.538Z,1.00
2019-02-23T03:55:17.793Z,1.00
2019-02-23T03:57:43.011Z,1.00
2019-02-23T04:00:08.890Z,1.00
2019-02-23T04:02:34.053Z,1.00
2019-02-23T04:04:59.236Z,1.00
2019-02-23T04:07:24.428Z,99.90
2019-02-23T04:09:49.579Z,99.90
2019-02-23T04:12:14.753Z,1.00
2019-02-23T04:14:39.912Z,1.00
2019-02-23T04:19:31.699Z,1.00
2019-02-23T04:21:56.913Z,1.00
2019-02-23T04:24:22.130Z,1.00
2019-02-23T04:26:47.364Z,1.00
2019-02-23T04:29:12.510Z,1.00
2019-02-23T04:31:37.663Z,1.00
2019-02-23T04:34:02.879Z,1.00
2019-02-23T04:36:28.032Z,1.00
2019-02-23T04:38:53.206Z,1.00
2019-02-23T04:41:18.514Z,1.00
2019-02-23T04:43:44.271Z,1.00
2019-02-23T04:46:09.835Z,82.90
2019-02-23T04:48:35.416Z,1.00
2019-02-23T04:51:00.588Z,1.00
2019-02-23T04:53:25.781Z,1.00
2019-02-23T04:55:51.056Z,1.00
2019-02-23T04:58:16.218Z,1.00
2019-02-23T05:00:44.947Z,1.00
2019-02-23T05:03:10.150Z,1.00
2019-02-23T05:05:35.379Z,1.00
2019-02-23T05:08:00.524Z,1.00
2019-02-23T05:10:25.724Z,1.00
2019-02-23T05:12:50.967Z,1.00
2019-02-23T05:15:16.118Z,1.00
2019-02-23T05:17:41.356Z,1.00
2019-02-23T05:20:06.520Z,8.30
2019-02-23T05:22:31.723Z,99.90
2019-02-23T05:24:57.069Z,99.90
2019-02-23T05:27:22.216Z,99.90
2019-02-23T05:29:47.427Z,99.90
2019-02-23T05:32:12.577Z,1.00
2019-02-23T05:34:37.968Z,99.90
2019-02-23T05:37:03.115Z,99.90
2019-02-23T05:39:28.323Z,1.00
2019-02-23T05:41:53.506Z,1.00
2019-02-23T05:44:18.704Z,1.00
2019-02-23T05:46:43.866Z,1.00
2019-02-23T05:49:09.159Z,1.00
2019-02-23T05:51:38.782Z,1.00
2019-02-23T05:54:02.095Z,1.00
2019-02-23T05:56:29.378Z,1.00
2019-02-23T05:58:54.556Z,1.00
2019-02-23T06:01:20.548Z,1.00
2019-02-23T06:03:45.732Z,1.00
2019-02-23T06:06:11.040Z,1.00
2019-02-23T06:08:36.458Z,1.00
2019-02-23T06:11:01.798Z,1.00
2019-02-23T06:13:26.970Z,1.00
2019-02-23T06:15:52.147Z,1.00
2019-02-23T06:18:17.359Z,1.00
2019-02-23T06:20:42.558Z,1.00
2019-02-23T06:23:07.728Z,1.00
2019-02-23T06:25:32.956Z,1.00
2019-02-23T06:27:58.122Z,1.00
2019-02-23T06:30:23.329Z,1.00
2019-02-23T06:32:48.738Z,1.00
2019-02-23T06:35:13.901Z,1.00
2019-02-23T06:37:39.263Z,1.00
2019-02-23T06:40:09.549Z,1.00
2019-02-23T06:42:34.908Z,1.00
2019-02-23T06:45:00.277Z,1.00
2019-02-23T06:47:25.671Z,1.00
2019-02-23T06:49:50.871Z,1.00
2019-02-23T06:52:16.062Z,1.00
2019-02-23T06:54:41.235Z,1.00
2019-02-23T06:57:06.428Z,1.00
2019-02-23T06:59:31.627Z,1.00
2019-02-23T07:01:56.915Z,1.00
2019-02-23T07:04:22.129Z,1.00
2019-02-23T07:06:47.569Z,1.00
2019-02-23T07:09:12.888Z,1.00
2019-02-23T07:14:03.738Z,1.00
2019-02-23T07:16:28.997Z,1.00
2019-02-23T07:18:55.189Z,1.00
2019-02-23T07:21:20.389Z,99.90
2019-02-23T07:23:45.829Z,99.90
2019-02-23T07:26:12.321Z,99.90
2019-02-23T07:28:37.574Z,99.90
2019-02-23T07:31:02.908Z,99.90
2019-02-23T07:33:32.767Z,99.90
2019-02-23T07:35:55.157Z,99.90
2019-02-23T07:38:20.751Z,99.90
2019-02-23T07:40:45.908Z,99.90
2019-02-23T07:43:11.189Z,99.90
2019-02-23T07:45:36.537Z,78.10
2019-02-23T07:48:01.741Z,1.00
2019-02-23T07:50:27.062Z,1.00
2019-02-23T07:52:52.335Z,1.00
2019-02-23T07:55:17.631Z,1.00
2019-02-23T07:57:42.796Z,1.00
2019-02-23T08:02:35.703Z,1.00
2019-02-23T08:05:02.399Z,1.00
2019-02-23T08:07:29.130Z,1.00
2019-02-23T08:10:00.326Z,1.00
2019-02-23T08:12:26.131Z,1.00
2019-02-23T08:14:51.326Z,1.00
2019-02-23T08:17:16.505Z,1.00
2019-02-23T08:19:41.687Z,1.00
2019-02-23T08:22:06.848Z,99.90
2019-02-23T08:24:32.031Z,99.90
2019-02-23T08:26:57.269Z,99.90
2019-02-23T08:29:22.500Z,99.90
2019-02-23T08:31:47.686Z,99.90
2019-02-23T08:34:13.243Z,99.90
2019-02-23T08:36:38.427Z,99.90
2019-02-23T08:39:03.903Z,99.90
2019-02-23T08:41:30.979Z,99.90
2019-02-23T08:43:56.162Z,99.90
2019-02-23T08:46:21.321Z,99.90
2019-02-23T08:48:46.503Z,99.90
2019-02-23T08:51:11.756Z,99.90
2019-02-23T08:53:36.952Z,99.90
2019-02-23T08:56:02.116Z,99.90
2019-02-23T08:58:27.262Z,99.60
2019-02-23T09:00:52.437Z,99.90
2019-02-23T09:03:17.620Z,54.20
2019-02-23T09:05:43.844Z,25.60
2019-02-23T09:08:09.024Z,2.40
2019-02-23T09:10:34.193Z,1.00
2019-02-23T09:12:59.713Z,1.00
2019-02-23T09:15:24.887Z,1.00
2019-02-23T09:17:50.045Z,1.00
2019-02-23T09:32:24.017Z,1.00
2019-02-23T09:34:49.247Z,1.00
2019-02-23T09:37:14.515Z,1.00
2019-02-23T09:39:39.701Z,1.00
2019-02-23T09:42:07.419Z,1.00
2019-02-23T09:44:31.987Z,1.00
2019-02-23T09:46:57.292Z,1.00
2019-02-23T09:49:22.479Z,1.00
2019-02-23T09:51:47.630Z,1.00
2019-02-23T09:56:38.351Z,1.00
2019-02-23T09:59:03.508Z,1.00
2019-02-23T10:01:28.717Z,1.00
2019-02-23T10:03:55.064Z,1.00
2019-02-23T10:06:21.130Z,1.00
2019-02-23T10:08:46.319Z,1.00
2019-02-23T10:11:11.480Z,1.00
2019-02-23T10:30:37.780Z,1.00
2019-02-23T10:33:03.156Z,99.90
2019-02-23T10:35:28.447Z,99.90
2019-02-23T10:37:53.942Z,99.90
2019-02-23T10:40:19.117Z,99.90
2019-02-23T10:42:44.329Z,99.90
2019-02-23T10:45:10.904Z,99.90
2019-02-23T10:47:37.183Z,99.90
2019-02-23T10:50:05.322Z,99.90
2019-02-23T10:52:30.663Z,99.90
2019-02-23T10:54:55.999Z,99.90
2019-02-23T10:57:22.404Z,99.90
2019-02-23T10:59:47.571Z,99.90
2019-02-23T11:02:13.355Z,99.90
2019-02-23T11:04:38.949Z,99.90
2019-02-23T11:07:04.559Z,99.90
2019-02-23T11:09:31.548Z,99.90
2019-02-23T11:11:56.725Z,99.90
2019-02-23T11:14:21.889Z,99.90
2019-02-23T11:16:47.244Z,99.90
2019-02-23T11:19:12.503Z,99.90
2019-02-23T11:28:54.850Z,99.90
2019-02-23T11:31:20.048Z,99.90
2019-02-23T11:33:45.353Z,99.90
2019-02-23T11:36:10.640Z,99.90
2019-02-23T11:38:35.893Z,99.90
2019-02-23T11:41:01.124Z,99.90
2019-02-23T11:43:26.542Z,99.90
2019-02-23T11:45:51.898Z,99.90
2019-02-23T11:48:17.072Z,99.90
2019-02-23T11:50:43.275Z,99.90
2019-02-23T11:53:08.447Z,99.90
2019-02-23T11:55:33.868Z,99.90
2019-02-23T11:57:59.109Z,99.90
2019-02-23T12:00:25.399Z,99.90
2019-02-23T12:02:52.795Z,99.90
2019-02-23T12:05:17.692Z,99.90
2019-02-23T12:07:42.865Z,99.90
2019-02-23T12:10:14.896Z,99.90
2019-02-23T12:12:41.145Z,99.90
2019-02-23T12:15:07.296Z,99.90
2019-02-23T12:17:32.577Z,99.90
2019-02-23T12:19:57.908Z,99.90
2019-02-23T12:22:23.088Z,99.90
2019-02-23T12:24:48.423Z,99.90
2019-02-23T12:27:13.908Z,99.90
2019-02-23T12:29:39.088Z,99.90
2019-02-23T12:32:04.278Z,99.90
2019-02-23T12:34:29.445Z,99.90
2019-02-23T12:36:57.461Z,99.90
2019-02-23T12:39:22.296Z,99.90
2019-02-23T12:41:48.694Z,99.90
2019-02-23T12:44:14.248Z,99.90
2019-02-23T12:46:39.531Z,99.90
2019-02-23T12:49:04.803Z,99.90
2019-02-23T12:51:30.109Z,99.90
2019-02-23T12:53:56.632Z,99.90
2019-02-23T12:56:22.353Z,99.90
2019-02-23T12:58:48.835Z,99.90
2019-02-23T13:01:17.265Z,99.90
2019-02-23T13:03:42.431Z,99.90
2019-02-23T13:06:09.737Z,99.90
2019-02-23T13:09:12.463Z,99.90
2019-02-23T13:11:41.534Z,99.90
2019-02-23T13:14:28.619Z,99.90
2019-02-23T13:17:00.670Z,99.90
2019-02-23T13:19:46.004Z,99.90
2019-02-23T13:22:15.072Z,99.90
2019-02-23T13:24:54.068Z,99.90
2019-02-23T13:27:23.092Z,99.90
2019-02-23T13:30:09.959Z,99.90
2019-02-23T13:32:48.132Z,99.90
2019-02-23T13:35:32.060Z,99.90
2019-02-23T13:38:28.579Z,99.90
2019-02-23T13:41:09.468Z,99.90
2019-02-23T13:43:44.468Z,99.90
2019-02-23T13:46:22.400Z,99.90
2019-02-23T13:48:51.665Z,99.90
2019-02-23T13:51:43.816Z,99.90
2019-02-23T13:54:38.593Z,99.90
2019-02-23T13:57:40.472Z,99.90
2019-02-23T14:00:26.564Z,99.90
2019-02-23T14:05:44.863Z,99.90
2019-02-23T14:08:36.878Z,99.90
2019-02-23T14:11:06.497Z,99.90
2019-02-23T14:13:43.977Z,99.90
2019-02-23T14:16:28.428Z,99.90
2019-02-23T14:19:04.923Z,99.90
2019-02-23T14:22:00.961Z,99.90
2019-02-23T14:24:50.084Z,99.90
2019-02-23T14:27:42.623Z,99.90
2019-02-23T14:30:42.856Z,99.90
2019-02-23T14:33:42.178Z,99.90
2019-02-23T14:36:23.104Z,99.90
2019-02-23T14:39:25.987Z,99.90
2019-02-23T14:42:00.328Z,99.90
2019-02-23T14:44:34.874Z,99.90
2019-02-23T14:47:13.246Z,99.90
2019-02-23T14:50:01.877Z,99.90
2019-02-23T14:53:18.365Z,99.90
2019-02-23T14:55:23.499Z,99.90
2019-02-23T14:58:12.274Z,99.90
2019-02-23T15:01:01.107Z,99.90
2019-02-23T15:03:46.354Z,99.90
2019-02-23T15:06:41.640Z,99.90
2019-02-23T15:09:41.350Z,99.90
2019-02-23T15:12:19.903Z,99.90
2019-02-23T15:15:11.738Z,99.90
2019-02-23T15:17:48.792Z,99.90
2019-02-23T15:20:40.301Z,99.90
2019-02-23T15:23:22.363Z,99.90
2019-02-23T15:26:03.593Z,99.90
2019-02-23T15:28:41.640Z,99.90
2019-02-23T15:31:28.123Z,99.90
2019-02-23T15:34:14.205Z,99.90
2019-02-23T15:37:00.642Z,99.90
2019-02-23T15:39:41.520Z,99.90
2019-02-23T15:42:19.283Z,99.90
2019-02-23T15:45:23.292Z,99.90
2019-02-23T15:47:55.332Z,99.90
2019-02-23T15:50:27.339Z,99.90
2019-02-23T15:52:55.737Z,99.90
2019-02-23T16:10:19.852Z,99.90
2019-02-23T16:12:53.885Z,99.90
2019-02-23T17:26:43.155Z,99.90
2019-02-23T17:29:10.934Z,99.90
2019-02-23T17:31:36.187Z,99.90
2019-02-23T17:34:07.607Z,99.90
2019-02-23T17:36:32.803Z,99.90
2019-02-23T17:38:58.080Z,99.90
2019-02-23T17:41:23.955Z,99.90
2019-02-23T17:43:49.733Z,99.90
2019-02-23T17:46:15.215Z,99.90
2019-02-23T17:48:45.461Z,99.90
2019-02-23T17:53:52.214Z,99.90
2019-02-23T17:56:17.854Z,99.90
2019-02-23T18:10:52.927Z,99.90
2019-02-23T18:13:18.322Z,99.90
2019-02-23T18:15:43.871Z,99.90
2019-02-23T18:18:10.146Z,99.90
2019-02-23T18:20:35.442Z,99.90
2019-02-23T18:23:01.703Z,99.90
2019-02-23T18:25:35.242Z,99.90
2019-02-23T18:28:00.819Z,99.90
2019-02-23T19:11:55.004Z,99.90
2019-02-23T19:14:22.984Z,99.90
2019-02-23T19:16:54.298Z,99.90
2019-02-23T19:19:19.533Z,99.90
2019-02-23T19:21:46.802Z,99.90
2019-02-23T19:24:11.922Z,99.90
2019-02-23T19:26:39.035Z,99.90
2019-02-23T19:29:04.851Z,99.90
2019-02-23T19:31:30.296Z,99.90
2019-02-23T19:33:55.553Z,99.90
2019-02-23T19:36:20.946Z,99.90
2019-02-23T19:38:48.834Z,99.90
2019-02-23T19:41:14.620Z,99.90
2019-02-23T19:43:39.833Z,99.90
2019-02-23T19:46:06.317Z,99.90
2019-02-23T19:53:27.886Z,99.90
2019-02-23T19:55:54.429Z,99.90
2019-02-23T19:58:20.772Z,99.90
2019-02-23T20:00:46.152Z,99.90
2019-02-23T20:40:10.625Z,99.90
2019-02-23T20:42:35.918Z,99.90
2019-02-23T20:45:01.805Z,99.90
2019-02-23T20:47:27.398Z,99.90
2019-02-23T20:49:53.036Z,99.90
2019-02-23T20:52:18.441Z,99.90
2019-02-23T21:26:31.811Z,99.90
2019-02-23T21:28:57.173Z,99.90
2019-02-23T21:31:23.161Z,99.90
2019-02-23T21:33:48.409Z,99.90
2019-02-23T21:36:13.786Z,99.90
2019-02-23T21:38:41.160Z,99.90
2019-02-23T21:41:06.475Z,99.90
2019-02-23T21:43:31.947Z,99.90
2019-02-23T21:45:57.412Z,99.90
2019-02-23T21:48:22.774Z,99.90
2019-02-23T22:02:58.125Z,99.90
2019-02-23T22:05:23.441Z,99.90
2019-02-23T22:07:48.827Z,99.90
2019-02-23T22:10:16.428Z,99.90
2019-02-23T22:12:41.944Z,99.90
2019-02-23T22:15:08.411Z,99.90
2019-02-23T22:17:36.678Z,99.90
2019-02-23T22:20:07.080Z,99.90
2019-02-23T22:22:32.873Z,99.90
2019-02-23T22:24:58.290Z,99.90
2019-02-23T22:27:31.168Z,99.90
2019-02-23T22:29:52.439Z,99.90
2019-02-23T22:32:17.680Z,99.90
2019-02-23T22:34:42.846Z,99.90
2019-02-23T22:37:08.089Z,99.90
2019-02-23T22:39:33.582Z,99.90
2019-02-23T22:41:59.773Z,99.90
2019-02-23T22:44:25.557Z,99.90
2019-02-23T22:46:51.006Z,99.90
2019-02-23T22:49:16.521Z,99.90
2019-02-23T22:51:41.737Z,99.90
2019-02-23T22:54:06.957Z,99.90
2019-02-23T22:56:32.980Z,99.90
2019-02-23T22:58:58.231Z,99.90
2019-02-23T23:01:24.196Z,99.90
2019-02-23T23:03:50.072Z,99.90
2019-02-23T23:06:15.362Z,99.90
2019-02-23T23:08:40.764Z,99.90
2019-02-23T23:11:06.054Z,99.90
2019-02-23T23:13:31.347Z,99.90
2019-02-23T23:15:56.707Z,99.90
2019-02-23T23:18:22.188Z,99.90
2019-02-23T23:20:47.415Z,99.90
2019-02-23T23:23:12.750Z,99.90
2019-02-23T23:25:38.122Z,99.90
2019-02-23T23:28:03.397Z,99.90
2019-02-23T23:30:28.718Z,99.90
2019-02-23T23:32:54.146Z,1.00
2019-02-23T23:35:19.412Z,1.00
2019-02-23T23:37:44.660Z,1.00
2019-02-23T23:40:10.896Z,1.00
2019-02-23T23:42:37.567Z,1.00
2019-02-23T23:45:04.391Z,1.00
2019-02-23T23:47:29.592Z,1.00
2019-02-23T23:49:55.104Z,1.00
2019-02-23T23:52:20.624Z,1.00
2019-02-23T23:54:46.310Z,1.00
2019-02-23T23:57:14.628Z,1.00
2019-02-23T23:59:40.249Z,1.00
